Time;durP1;ratioP1;P1;durP2;ratioP2;P2;SDS_P1;SDS_P2;PMS_P1;PMS_P2;Temp;Humidity;BMP_temperature;BMP_pressure;BME280_temperature;BME280_humidity;BME280_pressure;Samples;Min_cycle;Max_cycle;Signal;HPM_P1;HPM_P2
2022/03/23 13:55:52;;;;;;;17.13;12.00;;;;;;;33.90;11.10;101556.69;5079376;27;20386;-83
2022/03/23 13:58:19;;;;;;;13.50;12.25;;;;;;;33.68;10.13;101563.16;5098867;28;20409;-84
2022/03/23 14:00:48;;;;;;;12.70;11.40;;;;;;;33.50;10.48;101556.34;5078040;28;20416;-84
2022/03/23 14:03:17;;;;;;;12.85;11.40;;;;;;;33.63;10.39;101557.81;5080478;28;20415;-83
2022/03/23 14:06:02;;;;;;;12.07;10.93;;;;;;;33.80;10.23;101554.50;5087180;28;20407;-87
2022/03/23 14:08:27;;;;;;;11.77;10.73;;;;;;;33.95;10.54;101555.56;5085715;28;20771;-82
2022/03/23 14:10:53;;;;;;;13.27;10.63;;;;;;;33.90;9.69;101551.06;5089901;28;20464;-83
2022/03/23 14:13:25;;;;;;;12.35;10.73;;;;;;;33.18;10.00;101543.72;5102827;28;20749;-83
2022/03/23 14:15:57;;;;;;;12.10;10.90;;;;;;;32.79;10.20;101557.75;5069780;28;20406;-83
2022/03/23 14:18:23;;;;;;;16.10;10.90;;;;;;;30.62;11.77;101549.66;5087751;28;20429;-82
2022/03/23 14:20:54;;;;;;;12.15;11.00;;;;;;;29.39;12.17;101539.94;5102813;28;21005;-83
2022/03/23 14:23:21;;;;;;;12.05;10.85;;;;;;;29.26;12.93;101537.13;5104798;28;20416;-83
2022/03/23 14:25:50;;;;;;;12.50;11.23;;;;;;;29.81;12.57;101536.63;5079062;28;20935;-82
2022/03/23 14:28:19;;;;;;;12.00;10.30;;;;;;;30.75;11.99;101531.66;5108438;28;20451;-83
2022/03/23 14:31:02;;;;;;;11.82;10.70;;;;;;;31.26;11.29;101534.69;5106746;28;20408;-83
2022/03/23 14:33:28;;;;;;;14.82;10.30;;;;;;;31.14;11.36;101530.00;5076018;28;20743;-83
2022/03/23 14:35:54;;;;;;;11.85;10.52;;;;;;;30.80;11.12;101527.78;5082469;28;20462;-82
2022/03/23 14:38:26;;;;;;;11.98;10.35;;;;;;;29.32;12.02;101518.16;5078520;28;20385;-82
2022/03/23 14:40:54;;;;;;;13.52;10.85;;;;;;;29.47;12.20;101517.53;5094829;28;20429;-83
2022/03/23 14:43:39;;;;;;;11.88;10.23;;;;;;;29.15;12.08;101507.16;5108012;28;20392;-83
2022/03/23 14:46:20;;;;;;;13.70;10.88;;;;;;;28.32;12.61;101515.59;5106793;28;20426;-82
2022/03/23 14:49:06;;;;;;;13.50;10.50;;;;;;;27.22;14.01;101511.00;5103028;28;20409;-81
2022/03/23 14:51:33;;;;;;;11.85;10.65;;;;;;;25.52;14.38;101512.38;5087478;28;20473;-81
2022/03/23 14:54:00;;;;;;;13.67;9.93;;;;;;;24.22;15.34;101499.47;5083824;28;20412;-80
2022/03/23 14:56:25;;;;;;;12.32;10.55;;;;;;;23.17;17.06;101500.44;5067238;28;20393;-80
2022/03/23 14:58:58;;;;;;;14.40;11.87;;;;;;;22.66;17.62;101502.41;5082885;28;20409;-80
2022/03/23 15:01:25;;;;;;;13.48;11.50;;;;;;;22.13;18.36;101496.25;5078872;28;20501;-80
2022/03/23 15:03:51;;;;;;;13.90;11.35;;;;;;;21.58;18.65;101492.22;5097829;28;20386;-80
2022/03/23 15:14:30;;;;;;;15.60;13.20;;;;;;;20.85;20.11;101481.31;5086200;28;20573;-80
2022/03/23 15:16:55;;;;;;;17.63;11.63;;;;;;;20.69;20.64;101480.63;5062784;28;20437;-80
2022/03/23 15:19:20;;;;;;;15.83;12.57;;;;;;;20.61;20.27;101481.22;5082399;28;20379;-80
2022/03/23 15:21:45;;;;;;;19.10;12.90;;;;;;;20.42;20.12;101479.44;5080098;28;20817;-80
2022/03/23 15:24:11;;;;;;;15.10;13.02;;;;;;;20.37;20.58;101477.56;5071635;28;20495;-80
2022/03/23 15:26:37;;;;;;;18.13;12.83;;;;;;;20.18;21.18;101476.56;5061616;28;20420;-80
2022/03/23 15:29:03;;;;;;;17.55;13.43;;;;;;;20.00;21.15;101482.69;5061760;28;20738;-80
2022/03/23 15:31:31;;;;;;;16.95;13.13;;;;;;;19.92;20.80;101467.59;5079178;28;20374;-79
2022/03/23 15:33:59;;;;;;;14.80;13.20;;;;;;;19.79;21.33;101464.66;5074217;28;20457;-80
2022/03/23 15:36:25;;;;;;;18.38;12.43;;;;;;;19.79;21.73;101470.97;5086224;28;20897;-80
2022/03/23 15:38:51;;;;;;;15.13;13.02;;;;;;;19.63;21.29;101472.13;5093225;28;20429;-80
2022/03/23 15:41:17;;;;;;;16.85;13.15;;;;;;;19.56;21.25;101464.19;5072254;28;20893;-81
2022/03/23 15:43:46;;;;;;;21.73;14.07;;;;;;;19.44;21.45;101460.09;5086212;28;20873;-81
2022/03/23 15:46:13;;;;;;;16.05;13.43;;;;;;;19.36;21.71;101460.66;5062337;28;20413;-81
2022/03/23 15:48:38;;;;;;;158.52;20.73;;;;;;;19.29;21.27;101463.69;5093352;28;20394;-80
2022/03/23 15:51:05;;;;;;;29.08;14.00;;;;;;;19.34;21.89;101460.09;5093282;28;20494;-80
2022/03/23 15:53:31;;;;;;;16.70;13.20;;;;;;;19.23;21.87;101463.97;5095136;28;20893;-79
2022/03/23 15:55:56;;;;;;;19.17;13.45;;;;;;;19.12;21.47;101460.41;5074591;28;20957;-81
2022/03/23 15:58:22;;;;;;;19.37;13.10;;;;;;;19.04;21.60;101461.81;5077645;28;20403;-81
2022/03/23 16:00:47;;;;;;;18.23;13.27;;;;;;;19.02;22.41;101454.94;5070979;28;20406;-82
2022/03/23 16:03:13;;;;;;;22.13;13.70;;;;;;;18.97;22.35;101458.50;5089312;28;20894;-79
2022/03/23 16:05:40;;;;;;;41.63;13.95;;;;;;;18.91;22.74;101456.03;5088289;28;20427;-81
2022/03/23 16:08:05;;;;;;;21.45;11.90;;;;;;;18.78;22.48;101465.66;5078726;28;20531;-80
2022/03/23 16:10:31;;;;;;;16.37;12.57;;;;;;;18.70;22.76;101460.75;5077386;28;20502;-78
2022/03/23 16:12:57;;;;;;;14.30;12.40;;;;;;;18.63;22.05;101461.00;5083851;28;20766;-80
2022/03/23 16:15:24;;;;;;;17.85;12.40;;;;;;;18.58;22.63;101460.16;5090371;28;20415;-79
2022/03/23 16:17:54;;;;;;;14.67;12.87;;;;;;;18.49;22.26;101459.88;5077674;28;20508;-80
2022/03/23 16:20:19;;;;;;;15.48;13.52;;;;;;;18.41;22.23;101462.31;5093454;28;20408;-80
2022/03/23 16:22:46;;;;;;;14.47;12.97;;;;;;;18.36;22.17;101460.41;5092095;28;20908;-79
2022/03/23 16:25:11;;;;;;;16.52;12.73;;;;;;;18.34;23.02;101464.50;5090198;28;20424;-79
2022/03/23 16:27:38;;;;;;;14.27;12.77;;;;;;;18.25;22.43;101461.47;5084858;28;20963;-80
2022/03/23 16:30:08;;;;;;;14.95;13.00;;;;;;;18.23;23.16;101463.66;5112962;28;20524;-80
2022/03/23 16:32:37;;;;;;;14.13;12.63;;;;;;;18.14;23.19;101459.81;5097486;28;20408;-80
2022/03/23 16:35:06;;;;;;;15.80;12.40;;;;;;;18.10;23.43;101466.94;5089069;28;20921;-80
2022/03/23 16:37:33;;;;;;;15.10;12.55;;;;;;;18.00;23.23;101458.66;5065063;28;20411;-80
2022/03/23 16:39:59;;;;;;;18.75;12.55;;;;;;;17.93;23.47;101461.66;5081839;28;20411;-80
2022/03/23 16:42:24;;;;;;;17.80;13.07;;;;;;;17.88;23.84;101461.63;5072126;28;20490;-80
2022/03/23 16:44:50;;;;;;;16.37;13.13;;;;;;;17.79;23.44;101467.91;5107265;28;20471;-80
2022/03/23 16:47:16;;;;;;;24.27;13.32;;;;;;;17.72;23.69;101470.06;5094528;28;20412;-80
2022/03/23 16:49:41;;;;;;;16.88;12.98;;;;;;;17.63;23.43;101470.59;5095855;28;20415;-78
2022/03/23 16:52:09;;;;;;;16.87;11.70;;;;;;;17.58;24.02;101462.31;5071892;28;20461;-79
2022/03/23 16:54:34;;;;;;;16.35;12.88;;;;;;;17.49;23.90;101463.91;5088325;28;20429;-79
2022/03/23 16:57:02;;;;;;;16.50;12.05;;;;;;;17.44;23.97;101463.06;5108543;28;20745;-79
2022/03/23 16:59:28;;;;;;;15.75;12.50;;;;;;;17.34;24.73;101461.09;5100795;28;20389;-79
2022/03/23 17:01:56;;;;;;;18.20;12.07;;;;;;;17.26;24.71;101458.00;5094215;28;20384;-79
2022/03/23 17:12:33;;;;;;;16.58;12.52;;;;;;;16.99;25.20;101464.41;5085280;28;20434;-79
2022/03/23 17:15:04;;;;;;;15.77;12.60;;;;;;;16.89;24.74;101472.53;5112098;28;20408;-78
2022/03/23 17:17:31;;;;;;;15.17;12.03;;;;;;;16.86;25.08;101466.81;5112039;28;20384;-78
2022/03/23 17:19:58;;;;;;;18.98;12.93;;;;;;;16.79;25.23;101466.19;5066178;28;20444;-78
2022/03/23 17:22:26;;;;;;;22.52;14.75;;;;;;;16.69;25.46;101471.59;5085925;28;20412;-79
2022/03/23 17:24:56;;;;;;;16.88;13.43;;;;;;;16.64;25.58;101466.03;5084644;28;20464;-78
2022/03/23 17:27:22;;;;;;;21.58;15.18;;;;;;;16.53;26.03;101465.91;5111957;28;20428;-79
2022/03/23 17:29:49;;;;;;;19.50;14.48;;;;;;;16.43;26.07;101475.97;5104361;28;20381;-79
2022/03/23 17:32:19;;;;;;;22.40;14.70;;;;;;;16.32;26.59;101472.31;5069567;28;20767;-78
2022/03/23 17:34:45;;;;;;;22.65;13.55;;;;;;;16.23;26.47;101478.50;5090449;28;20814;-78
2022/03/23 17:37:11;;;;;;;20.03;14.20;;;;;;;16.13;26.77;101470.19;5087197;28;20478;-77
2022/03/23 17:39:37;;;;;;;24.70;14.00;;;;;;;16.04;26.96;101475.25;5081003;28;20384;-78
2022/03/23 17:42:03;;;;;;;27.70;15.73;;;;;;;15.97;26.91;101475.47;5095312;28;20414;-78
2022/03/23 17:44:30;;;;;;;20.98;14.52;;;;;;;15.91;27.19;101479.22;5109046;28;20388;-78
2022/03/23 17:46:56;;;;;;;21.23;15.10;;;;;;;15.81;27.35;101475.53;5076554;28;20776;-77
2022/03/23 17:49:21;;;;;;;20.20;15.23;;;;;;;15.71;27.58;101475.44;5071470;28;20401;-78
2022/03/23 17:51:47;;;;;;;18.85;14.30;;;;;;;15.66;27.19;101478.91;5087254;28;20429;-77
2022/03/23 17:54:13;;;;;;;23.25;15.02;;;;;;;15.65;27.02;101484.63;5111165;28;20452;-77
2022/03/23 17:56:38;;;;;;;19.27;13.90;;;;;;;15.62;27.61;101477.75;5111450;28;20412;-77
2022/03/23 17:59:04;;;;;;;20.15;14.73;;;;;;;15.57;27.78;101483.19;5111622;28;20380;-76
2022/03/23 18:01:29;;;;;;;21.87;15.70;;;;;;;15.51;27.50;101482.25;5099491;28;20425;-76
2022/03/23 18:03:59;;;;;;;22.47;15.43;;;;;;;15.45;28.01;101477.78;5074685;28;20427;-76
2022/03/23 18:06:25;;;;;;;24.92;18.95;;;;;;;15.39;28.02;101484.25;5074480;28;20403;-77
2022/03/23 18:08:50;;;;;;;25.30;19.30;;;;;;;15.31;28.65;101478.41;5077864;28;20497;-76
2022/03/23 18:11:16;;;;;;;27.10;19.52;;;;;;;15.21;28.77;101479.09;5079757;28;20415;-77
2022/03/23 18:13:41;;;;;;;29.83;22.17;;;;;;;15.14;28.73;101486.63;5099572;28;20500;-77
2022/03/23 18:16:07;;;;;;;33.45;22.73;;;;;;;15.05;29.34;101485.38;5096059;28;20448;-77
2022/03/23 18:18:33;;;;;;;22.73;18.73;;;;;;;14.97;32.29;101485.81;5091274;28;20404;-78
2022/03/23 18:21:00;;;;;;;22.77;19.63;;;;;;;14.86;34.73;101494.91;5085770;28;20413;-77
2022/03/23 18:23:26;;;;;;;32.47;22.23;;;;;;;14.75;35.23;101487.63;5107747;28;20392;-77
2022/03/23 18:25:51;;;;;;;24.98;20.80;;;;;;;14.65;36.70;101498.38;5083641;28;20766;-78
2022/03/23 18:28:16;;;;;;;25.77;20.27;;;;;;;14.55;35.59;101504.47;5089394;28;20395;-78
2022/03/23 18:30:44;;;;;;;26.63;20.60;;;;;;;14.44;34.97;101506.19;5106346;28;20934;-79
2022/03/23 18:33:09;;;;;;;28.77;21.45;;;;;;;14.37;36.06;101502.78;5090814;28;20433;-78
2022/03/23 18:35:34;;;;;;;29.10;21.33;;;;;;;14.30;36.88;101512.13;5094808;28;20564;-78
2022/03/23 18:38:00;;;;;;;26.73;19.05;;;;;;;14.22;37.11;101504.38;5101006;28;20388;-78
2022/03/23 18:40:25;;;;;;;24.33;18.60;;;;;;;14.13;37.83;101503.91;5109969;28;20391;-78
2022/03/23 18:42:51;;;;;;;28.70;19.20;;;;;;;14.07;38.05;101506.78;5114818;28;20437;-78
2022/03/23 18:45:16;;;;;;;22.63;18.57;;;;;;;13.99;38.21;101513.47;5090018;28;20441;-78
2022/03/23 18:47:41;;;;;;;26.90;18.73;;;;;;;13.92;38.18;101510.88;5104252;28;20446;-78
2022/03/23 18:50:08;;;;;;;28.42;17.50;;;;;;;13.85;37.87;101509.34;5082240;28;20380;-78
2022/03/23 18:52:35;;;;;;;26.70;18.30;;;;;;;13.81;37.61;101513.63;5105569;28;20421;-78
2022/03/23 18:55:00;;;;;;;27.55;18.40;;;;;;;13.74;38.48;101515.63;5076505;28;20771;-78
2022/03/23 18:57:26;;;;;;;25.60;18.98;;;;;;;13.65;39.08;101520.63;5090114;28;20406;-78
2022/03/23 18:59:51;;;;;;;21.73;16.53;;;;;;;13.56;39.37;101522.09;5071272;28;20411;-78
2022/03/23 19:02:18;;;;;;;27.50;19.23;;;;;;;13.49;39.12;101524.94;5071813;28;20402;-78
2022/03/23 19:04:44;;;;;;;23.83;17.60;;;;;;;13.43;38.54;101515.00;5087041;28;20755;-78
2022/03/23 19:07:09;;;;;;;25.83;18.93;;;;;;;13.40;38.83;101512.72;5078155;28;22370;-78
2022/03/23 19:09:34;;;;;;;23.87;17.17;;;;;;;13.34;39.22;101518.28;5102990;28;20409;-78
2022/03/23 19:12:00;;;;;;;27.48;17.88;;;;;;;13.30;39.12;101515.25;5084911;28;20406;-79
2022/03/23 19:14:25;;;;;;;24.03;17.57;;;;;;;13.24;39.04;101518.06;5067136;28;20401;-79
2022/03/23 19:16:52;;;;;;;26.93;17.03;;;;;;;13.21;39.52;101519.34;5114241;28;20891;-78
2022/03/23 19:19:18;;;;;;;21.45;16.05;;;;;;;13.16;39.71;101519.25;5105233;28;20879;-78
2022/03/23 19:21:45;;;;;;;21.73;15.65;;;;;;;13.10;39.98;101520.19;5083901;28;20490;-78
2022/03/23 19:24:10;;;;;;;25.98;17.40;;;;;;;13.06;39.47;101520.88;5095688;28;21307;-78
2022/03/23 19:26:35;;;;;;;26.50;19.00;;;;;;;13.00;39.70;101530.81;5092903;28;20427;-77
2022/03/23 19:29:00;;;;;;;92.53;52.87;;;;;;;12.95;39.76;101528.78;5102802;28;20398;-78
2022/03/23 19:31:26;;;;;;;87.00;47.90;;;;;;;12.90;40.20;101525.09;5079316;28;20407;-78
2022/03/23 19:33:51;;;;;;;48.80;30.27;;;;;;;12.86;40.41;101529.34;5096897;28;20414;-78
2022/03/23 19:36:16;;;;;;;30.57;19.37;;;;;;;12.78;40.20;101526.97;5096294;28;20491;-77
2022/03/23 19:38:42;;;;;;;25.17;15.60;;;;;;;12.65;39.55;101528.00;5076721;28;20408;-77
2022/03/23 19:41:09;;;;;;;18.70;11.43;;;;;;;12.52;38.86;101532.81;5089339;28;20781;-78
2022/03/23 19:43:35;;;;;;;19.92;12.15;;;;;;;12.32;39.56;101527.66;5108036;28;20839;-77
2022/03/23 19:46:00;;;;;;;19.90;12.43;;;;;;;12.29;39.37;101528.94;5084520;28;20412;-78
2022/03/23 19:48:26;;;;;;;19.97;13.03;;;;;;;12.27;39.46;101536.50;5102576;28;20485;-78
2022/03/23 19:50:53;;;;;;;20.87;13.07;;;;;;;12.23;39.55;101527.16;5083251;28;20894;-78
2022/03/23 19:53:25;;;;;;;23.67;14.07;;;;;;;12.18;39.78;101526.19;5106458;28;20404;-79
2022/03/23 19:55:52;;;;;;;21.95;13.38;;;;;;;12.14;40.63;101528.53;5095065;28;20418;-77
2022/03/23 19:58:18;;;;;;;16.63;12.03;;;;;;;12.15;40.22;101532.09;5095476;28;20392;-77
2022/03/23 20:00:43;;;;;;;22.10;12.80;;;;;;;12.13;40.61;101536.91;5074140;28;20805;-79
2022/03/23 20:03:09;;;;;;;22.87;12.43;;;;;;;12.11;40.53;101536.31;5079793;28;20418;-78
2022/03/23 20:05:36;;;;;;;17.53;11.30;;;;;;;12.07;40.04;101535.09;5108797;28;20388;-77
2022/03/23 20:08:02;;;;;;;18.65;11.90;;;;;;;11.97;40.66;101532.94;5102957;28;20465;-78
2022/03/23 20:10:29;;;;;;;14.38;10.63;;;;;;;11.91;41.31;101533.84;5067073;28;20762;-78
2022/03/23 20:12:54;;;;;;;16.30;10.68;;;;;;;11.83;40.68;101532.25;5098023;28;20401;-78
2022/03/23 20:15:19;;;;;;;17.80;10.63;;;;;;;11.77;40.91;101535.06;5112788;28;20433;-79
2022/03/23 20:17:57;;;;;;;18.93;10.90;;;;;;;11.63;41.53;101534.34;5107471;28;20409;-78
2022/03/23 20:20:22;;;;;;;14.38;10.20;;;;;;;11.58;41.68;101534.19;5100795;28;20387;-78
2022/03/23 20:22:47;;;;;;;18.13;10.70;;;;;;;11.58;40.43;101530.66;5080258;28;20406;-78
2022/03/23 20:25:13;;;;;;;20.90;11.83;;;;;;;11.54;40.57;101529.44;5088979;28;20530;-78
2022/03/23 20:27:38;;;;;;;14.07;10.10;;;;;;;11.48;40.65;101533.88;5113102;28;20380;-78
2022/03/23 20:30:06;;;;;;;16.30;10.40;;;;;;;11.43;41.11;101539.97;5075822;28;20384;-78
2022/03/23 20:32:31;;;;;;;21.75;10.68;;;;;;;11.36;41.83;101541.91;5079270;28;20523;-77
2022/03/23 20:34:57;;;;;;;14.47;9.77;;;;;;;11.26;41.78;101538.06;5108959;28;20972;-77
2022/03/23 20:37:22;;;;;;;17.27;9.23;;;;;;;11.19;41.29;101535.44;5112618;28;20879;-78
2022/03/23 20:39:48;;;;;;;15.95;10.05;;;;;;;11.14;42.15;101531.69;5101472;28;20404;-78
2022/03/23 20:42:13;;;;;;;26.80;11.07;;;;;;;11.08;42.46;101530.72;5075741;28;20463;-78
2022/03/23 20:44:38;;;;;;;12.10;9.73;;;;;;;11.03;42.42;101527.00;5092824;28;20440;-79
2022/03/23 20:47:13;;;;;;;17.00;9.73;;;;;;;10.98;42.42;101530.38;5098560;28;20412;-78
2022/03/23 20:49:40;;;;;;;13.05;9.70;;;;;;;10.91;43.43;101526.88;5101747;28;20438;-79
2022/03/23 20:52:06;;;;;;;12.23;9.07;;;;;;;10.86;43.79;101534.88;5097686;28;20383;-79
2022/03/23 20:54:31;;;;;;;14.90;9.75;;;;;;;10.80;43.38;101533.03;5107457;28;20455;-79
2022/03/23 20:56:57;;;;;;;12.63;9.70;;;;;;;10.76;43.68;101538.06;5097721;28;20416;-78
2022/03/23 20:59:23;;;;;;;13.23;10.10;;;;;;;10.74;45.16;101545.56;5106705;28;20380;-80
2022/03/23 21:01:48;;;;;;;15.95;10.02;;;;;;;10.66;44.81;101537.72;5088459;28;20402;-79
2022/03/23 21:04:13;;;;;;;15.63;9.90;;;;;;;10.66;44.12;101537.72;5103202;28;20419;-79
2022/03/23 21:06:40;;;;;;;18.38;10.57;;;;;;;10.68;44.22;101537.50;5112041;28;20736;-79
2022/03/23 21:09:08;;;;;;;16.48;11.20;;;;;;;10.70;44.26;101532.69;5100332;28;20895;-80
2022/03/23 21:11:34;;;;;;;17.23;11.07;;;;;;;10.69;45.33;101531.88;5098271;28;20408;-80
2022/03/23 21:13:59;;;;;;;14.30;11.35;;;;;;;10.66;46.23;101537.72;5103470;28;20410;-77
2022/03/23 21:16:24;;;;;;;20.00;11.43;;;;;;;10.65;46.38;101543.34;5086020;28;20417;-77
2022/03/23 21:18:50;;;;;;;21.33;13.10;;;;;;;10.64;45.65;101545.22;5091726;28;20520;-77
2022/03/23 21:21:15;;;;;;;20.83;14.40;;;;;;;10.64;45.62;101552.53;5095044;28;20413;-78
2022/03/23 21:23:41;;;;;;;24.67;16.87;;;;;;;10.61;45.56;101542.97;5104088;28;20859;-77
2022/03/23 21:26:07;;;;;;;25.70;18.58;;;;;;;10.63;46.77;101549.00;5093296;28;20388;-78
2022/03/23 21:28:32;;;;;;;36.20;24.13;;;;;;;10.59;45.80;101536.94;5070388;28;20481;-76
2022/03/23 21:30:58;;;;;;;33.53;22.97;;;;;;;10.57;44.96;101543.63;5085693;28;20837;-78
2022/03/23 21:33:25;;;;;;;37.05;23.10;;;;;;;10.53;46.41;101536.97;5080139;28;20402;-79
2022/03/23 21:35:52;;;;;;;42.83;23.92;;;;;;;10.47;45.48;101533.28;5086613;28;20730;-78
2022/03/23 21:38:18;;;;;;;44.78;25.20;;;;;;;10.44;45.76;101543.72;5080859;28;20396;-78
2022/03/23 21:40:44;;;;;;;36.00;24.37;;;;;;;10.41;45.97;101540.38;5084063;28;20405;-78
2022/03/23 21:43:09;;;;;;;43.45;27.52;;;;;;;10.39;46.14;101549.78;5103759;28;20384;-78
2022/03/23 21:45:35;;;;;;;48.67;29.87;;;;;;;10.36;46.16;101540.22;5111229;28;20419;-78
2022/03/23 21:48:00;;;;;;;48.43;29.27;;;;;;;10.33;47.71;101540.66;5111471;28;20423;-78
2022/03/23 21:50:26;;;;;;;44.17;27.77;;;;;;;10.30;47.01;101529.41;5091675;28;20475;-75
2022/03/23 21:52:52;;;;;;;39.77;26.80;;;;;;;10.29;46.71;101536.69;5081968;28;20436;-77
2022/03/23 21:55:19;;;;;;;40.00;25.70;;;;;;;10.26;46.97;101539.84;5111419;28;20411;-77
2022/03/23 21:57:45;;;;;;;34.40;23.52;;;;;;;10.24;47.26;101539.22;5091315;28;20431;-78
2022/03/23 22:00:21;;;;;;;41.08;25.25;;;;;;;10.17;47.56;101533.03;5066758;28;20443;-77
2022/03/23 22:02:48;;;;;;;38.25;24.83;;;;;;;10.12;47.36;101532.78;5071092;28;20432;-78
2022/03/23 22:05:15;;;;;;;33.17;23.27;;;;;;;10.11;47.66;101538.44;5080697;28;20887;-78
2022/03/23 22:07:40;;;;;;;32.33;22.33;;;;;;;10.05;47.91;101536.56;5076018;28;20935;-78
2022/03/23 22:10:07;;;;;;;40.65;21.90;;;;;;;9.98;47.96;101530.38;5099353;28;20533;-78
2022/03/23 22:12:34;;;;;;;31.35;20.52;;;;;;;9.89;48.81;101533.31;5083593;28;20400;-78
2022/03/23 22:15:00;;;;;;;33.92;19.95;;;;;;;9.79;48.60;101532.94;5083441;28;20407;-78
2022/03/23 22:17:25;;;;;;;27.92;19.13;;;;;;;9.64;48.89;101537.78;5103880;28;20449;-78
2022/03/23 22:19:50;;;;;;;30.73;18.17;;;;;;;9.57;49.35;101536.97;5097122;28;20416;-78
2022/03/23 22:22:16;;;;;;;25.73;17.00;;;;;;;9.56;49.79;101534.47;5106730;28;20887;-78
2022/03/23 22:24:42;;;;;;;21.13;14.38;;;;;;;9.55;49.38;101532.81;5073996;28;20418;-78
2022/03/23 22:27:08;;;;;;;22.42;14.43;;;;;;;9.51;49.02;101531.56;5113279;28;20435;-77
2022/03/23 22:29:33;;;;;;;20.63;13.77;;;;;;;9.46;48.43;101529.47;5097747;28;20386;-78
2022/03/23 22:31:58;;;;;;;19.43;13.00;;;;;;;9.41;48.46;101532.00;5097309;28;20454;-78
2022/03/23 22:34:24;;;;;;;22.80;13.20;;;;;;;9.25;47.63;101535.16;5083170;28;20410;-78
2022/03/23 22:36:49;;;;;;;18.13;13.17;;;;;;;9.10;48.90;101532.66;5071251;28;20409;-78
2022/03/23 22:39:14;;;;;;;21.17;14.13;;;;;;;9.09;48.71;101539.09;5108168;28;20384;-79
2022/03/23 22:41:40;;;;;;;20.80;14.20;;;;;;;9.12;48.00;101530.56;5115256;28;20389;-78
2022/03/23 22:44:05;;;;;;;21.27;14.03;;;;;;;9.10;47.76;101529.13;5096359;28;20405;-78
2022/03/23 22:46:31;;;;;;;20.20;14.18;;;;;;;9.10;48.80;101537.22;5105094;28;20439;-78
2022/03/23 22:48:57;;;;;;;19.33;14.20;;;;;;;9.09;48.37;101536.41;5113755;28;20475;-78
2022/03/23 22:51:22;;;;;;;27.08;14.60;;;;;;;9.06;48.53;101542.22;5110189;28;20492;-78
2022/03/23 22:53:48;;;;;;;18.57;14.10;;;;;;;9.01;49.31;101542.03;5068404;28;20832;-78
2022/03/23 22:56:14;;;;;;;25.33;15.40;;;;;;;9.00;49.81;101544.94;5105635;28;20380;-78
2022/03/23 22:58:39;;;;;;;24.90;16.20;;;;;;;8.99;50.64;101538.69;5094039;28;20443;-78
2022/03/23 23:01:23;;;;;;;22.27;15.93;;;;;;;9.01;49.83;101535.78;5091739;28;20482;-79
2022/03/23 23:03:48;;;;;;;22.52;15.25;;;;;;;9.03;49.32;101531.81;5087474;28;20404;-78
2022/03/23 23:06:14;;;;;;;21.80;15.20;;;;;;;9.06;49.69;101528.69;5114657;28;20381;-78
2022/03/23 23:08:41;;;;;;;21.10;14.37;;;;;;;9.04;49.83;101529.97;5081238;28;20396;-78
2022/03/23 23:11:07;;;;;;;20.40;14.40;;;;;;;8.99;50.20;101517.06;5087363;28;20384;-78
2022/03/23 23:13:34;;;;;;;22.30;15.07;;;;;;;8.98;50.79;101519.97;5088977;28;20412;-78
2022/03/23 23:15:59;;;;;;;20.23;14.40;;;;;;;8.95;50.13;101515.84;5106109;28;20420;-78
2022/03/23 23:18:24;;;;;;;24.00;14.40;;;;;;;8.92;50.48;101518.13;5114050;28;20432;-78
2022/03/23 23:20:50;;;;;;;21.73;14.55;;;;;;;8.85;50.32;101518.13;5114408;28;20898;-79
2022/03/23 23:23:16;;;;;;;19.98;15.55;;;;;;;8.77;50.83;101519.16;5095151;28;20452;-78
2022/03/23 23:25:41;;;;;;;20.65;15.13;;;;;;;8.69;51.03;101516.63;5097602;28;20480;-78
2022/03/23 23:28:18;;;;;;;19.53;14.83;;;;;;;8.60;50.54;101517.88;5113392;28;20816;-78
2022/03/23 23:30:44;;;;;;;25.83;14.87;;;;;;;8.54;50.54;101518.72;5114566;28;20731;-78
2022/03/23 23:33:09;;;;;;;20.50;14.37;;;;;;;8.43;50.28;101507.69;5107816;28;20415;-78
2022/03/23 23:35:34;;;;;;;22.37;15.40;;;;;;;8.39;50.93;101511.84;5106982;28;20396;-78
2022/03/23 23:37:59;;;;;;;20.53;14.27;;;;;;;8.41;50.82;101516.00;5079630;28;20408;-78
2022/03/23 23:40:25;;;;;;;23.83;14.07;;;;;;;8.41;50.50;101509.75;5095872;28;20384;-78
2022/03/23 23:42:50;;;;;;;18.30;13.43;;;;;;;8.38;51.19;101512.84;5108548;28;20407;-79
2022/03/23 23:45:16;;;;;;;17.00;12.43;;;;;;;8.33;50.70;101502.69;5084153;28;20494;-78
2022/03/23 23:47:42;;;;;;;19.23;12.52;;;;;;;8.32;51.40;101509.13;5113760;28;20384;-78
2022/03/23 23:50:12;;;;;;;27.23;13.05;;;;;;;8.28;51.13;101510.56;5094062;28;20447;-78
2022/03/23 23:52:38;;;;;;;19.17;12.93;;;;;;;8.26;51.59;101518.00;5096207;28;20939;-78
2022/03/23 23:55:04;;;;;;;17.73;12.63;;;;;;;8.19;51.50;101512.59;5103773;28;20426;-78
2022/03/23 23:57:30;;;;;;;18.77;13.07;;;;;;;8.13;51.81;101510.72;5109294;28;20507;-78
2022/03/23 23:59:56;;;;;;;19.00;12.55;;;;;;;8.11;52.57;101514.63;5099959;28;20484;-78
